createdAt,value
2022-08-04T00:04:03.938Z,21.80
2022-08-04T00:09:24.167Z,21.70
2022-08-04T00:14:34.099Z,21.60
2022-08-04T00:19:44.744Z,21.60
2022-08-04T00:24:48.069Z,21.60
2022-08-04T00:29:53.134Z,21.50
2022-08-04T00:34:58.828Z,21.40
2022-08-04T00:40:03.374Z,21.30
2022-08-04T00:45:24.308Z,21.20
2022-08-04T00:50:30.057Z,21.10
2022-08-04T00:55:57.719Z,21.00
2022-08-04T01:01:14.272Z,21.00
2022-08-04T01:06:35.226Z,21.00
2022-08-04T01:11:56.420Z,20.90
2022-08-04T01:17:25.373Z,21.00
2022-08-04T01:22:34.378Z,21.00
2022-08-04T01:28:15.521Z,21.00
2022-08-04T01:33:24.260Z,21.10
2022-08-04T01:38:34.676Z,21.10
2022-08-04T01:43:43.873Z,21.00
2022-08-04T01:48:53.880Z,21.00
2022-08-04T01:53:57.399Z,21.00
2022-08-04T01:59:02.916Z,21.00
2022-08-04T02:04:18.861Z,21.00
2022-08-04T02:10:10.118Z,21.00
2022-08-04T02:16:09.685Z,21.00
2022-08-04T02:21:16.829Z,21.00
2022-08-04T02:26:24.313Z,21.00
2022-08-04T02:31:51.352Z,21.00
2022-08-04T02:36:56.244Z,21.00
2022-08-04T02:42:00.166Z,21.00
2022-08-04T02:47:04.622Z,20.90
2022-08-04T02:52:10.555Z,20.90
2022-08-04T02:57:17.590Z,20.90
2022-08-04T03:02:35.140Z,20.90
2022-08-04T03:08:15.456Z,20.80
2022-08-04T03:13:48.556Z,20.80
2022-08-04T03:19:38.862Z,20.70
2022-08-04T03:25:35.288Z,20.70
2022-08-04T03:31:47.306Z,20.60
2022-08-04T03:37:25.909Z,20.50
2022-08-04T03:43:58.977Z,20.50
2022-08-04T03:48:59.259Z,20.40
2022-08-04T03:54:32.087Z,20.40
2022-08-04T03:59:55.917Z,20.40
2022-08-04T04:05:16.420Z,20.40
2022-08-04T04:10:38.245Z,20.30
2022-08-04T04:16:08.977Z,20.30
2022-08-04T04:21:46.508Z,20.50
2022-08-04T04:27:19.690Z,20.60
2022-08-04T04:32:54.236Z,20.70
2022-08-04T04:38:33.228Z,20.80
2022-08-04T04:44:07.685Z,20.90
2022-08-04T04:49:40.969Z,21.00
2022-08-04T04:55:02.482Z,21.20
2022-08-04T05:00:13.352Z,21.30
2022-08-04T05:05:40.037Z,21.50
2022-08-04T05:10:51.891Z,21.70
2022-08-04T05:16:24.829Z,22.00
2022-08-04T05:21:39.776Z,22.20
2022-08-04T05:26:50.250Z,22.40
2022-08-04T05:31:56.308Z,22.70
2022-08-04T05:37:16.386Z,22.90
2022-08-04T05:42:19.751Z,23.20
2022-08-04T05:47:28.171Z,23.40
2022-08-04T05:52:32.550Z,23.80
2022-08-04T05:57:38.854Z,24.00
2022-08-04T06:02:44.930Z,24.30
2022-08-04T06:08:11.796Z,24.50
2022-08-04T06:13:48.608Z,24.70
2022-08-04T06:20:03.633Z,25.00
2022-08-04T06:24:07.376Z,25.20
2022-08-04T06:29:20.640Z,25.40
2022-08-04T06:34:24.294Z,25.50
2022-08-04T06:39:29.417Z,25.70
2022-08-04T06:44:34.441Z,25.90
2022-08-04T06:49:44.111Z,26.10
2022-08-04T06:55:07.229Z,26.30
2022-08-04T07:00:14.462Z,26.40
2022-08-04T07:05:20.063Z,26.60
2022-08-04T07:10:24.845Z,26.70
2022-08-04T07:15:28.409Z,26.90
2022-08-04T07:20:36.214Z,27.10
2022-08-04T07:26:00.793Z,27.20
2022-08-04T07:31:05.346Z,27.40
2022-08-04T07:36:11.477Z,27.50
2022-08-04T07:41:38.747Z,27.60
2022-08-04T07:46:43.182Z,27.70
2022-08-04T07:51:46.605Z,27.80
2022-08-04T07:56:51.793Z,28.00
2022-08-04T08:01:59.068Z,28.20
2022-08-04T08:07:02.047Z,28.40
2022-08-04T08:12:37.424Z,28.50
2022-08-04T08:17:30.104Z,28.60
2022-08-04T08:22:33.200Z,28.70
2022-08-04T08:27:38.206Z,28.90
2022-08-04T08:32:41.285Z,29.20
2022-08-04T08:37:58.559Z,29.40
2022-08-04T08:44:06.441Z,29.60
2022-08-04T08:50:01.582Z,29.80
2022-08-04T08:55:21.437Z,30.00
2022-08-04T09:00:55.167Z,30.10
2022-08-04T09:06:29.507Z,30.30
2022-08-04T09:12:10.054Z,30.50
2022-08-04T09:17:55.490Z,30.70
2022-08-04T09:23:19.456Z,31.00
2022-08-04T09:28:52.794Z,31.10
2022-08-04T09:34:27.346Z,31.20
2022-08-04T09:39:52.165Z,31.40
2022-08-04T09:45:26.603Z,31.50
2022-08-04T09:50:50.260Z,31.70
2022-08-04T09:56:32.455Z,31.90
2022-08-04T10:01:38.594Z,32.10
2022-08-04T10:07:12.334Z,32.20
2022-08-04T10:12:24.235Z,32.40
2022-08-04T10:17:55.071Z,32.30
2022-08-04T10:23:19.390Z,32.40
2022-08-04T10:28:23.471Z,32.50
2022-08-04T10:33:49.536Z,32.70
2022-08-04T10:39:43.519Z,32.70
2022-08-04T10:45:19.294Z,32.90
2022-08-04T10:50:26.689Z,32.90
2022-08-04T10:56:06.724Z,33.00
2022-08-04T11:02:01.438Z,33.10
2022-08-04T11:06:54.127Z,33.40
2022-08-04T11:12:23.656Z,33.70
2022-08-04T11:17:35.482Z,33.90
2022-08-04T11:22:50.332Z,33.90
2022-08-04T11:28:11.378Z,33.90
2022-08-04T11:33:54.548Z,34.00
2022-08-04T11:39:08.066Z,34.10
2022-08-04T11:44:23.186Z,34.10
2022-08-04T11:49:56.781Z,34.20
2022-08-04T11:55:07.367Z,34.30
2022-08-04T12:00:14.600Z,34.40
2022-08-04T12:05:36.693Z,34.70
2022-08-04T12:11:09.081Z,34.90
2022-08-04T12:16:30.790Z,34.90
2022-08-04T12:21:53.233Z,35.10
2022-08-04T12:27:20.388Z,35.30
2022-08-04T12:33:18.052Z,35.60
2022-08-04T12:38:23.627Z,35.90
2022-08-04T12:43:39.492Z,36.00
2022-08-04T12:48:47.161Z,36.20
2022-08-04T12:53:51.679Z,36.70
2022-08-04T12:59:12.994Z,36.80
2022-08-04T13:04:20.199Z,36.60
2022-08-04T13:09:26.701Z,36.60
2022-08-04T13:14:37.762Z,36.60
2022-08-04T13:19:56.344Z,36.20
2022-08-04T13:26:41.390Z,36.30
2022-08-04T13:30:25.835Z,36.10
2022-08-04T13:35:54.732Z,36.00
2022-08-04T13:40:57.875Z,35.80
2022-08-04T13:46:06.464Z,35.70
2022-08-04T13:51:12.342Z,35.60
2022-08-04T13:56:16.893Z,35.70
2022-08-04T14:01:35.993Z,35.90
2022-08-04T14:07:06.905Z,36.00
2022-08-04T14:12:38.823Z,36.10
2022-08-04T14:17:47.139Z,36.30
2022-08-04T14:22:49.965Z,36.30
2022-08-04T14:27:57.540Z,36.30
2022-08-04T14:34:02.084Z,36.20
2022-08-04T14:38:42.454Z,35.70
2022-08-04T14:44:03.734Z,35.50
2022-08-04T14:49:13.118Z,35.60
2022-08-04T14:54:18.855Z,35.90
2022-08-04T14:59:22.486Z,36.30
2022-08-04T15:04:26.251Z,36.40
2022-08-04T15:09:29.742Z,36.50
2022-08-04T15:14:37.482Z,36.70
2022-08-04T15:19:41.302Z,36.60
2022-08-04T15:24:58.908Z,36.60
2022-08-04T15:30:08.691Z,36.50
2022-08-04T15:35:22.135Z,36.40
2022-08-04T15:40:55.983Z,36.40
2022-08-04T15:46:43.869Z,36.30
2022-08-04T15:51:32.118Z,36.40
2022-08-04T15:56:35.858Z,36.50
2022-08-04T16:01:38.769Z,36.50
2022-08-04T16:06:43.663Z,36.60
2022-08-04T16:11:46.615Z,36.60
2022-08-04T16:16:50.375Z,36.50
2022-08-04T16:21:57.692Z,36.50
2022-08-04T16:27:06.471Z,36.40
2022-08-04T16:32:25.342Z,36.30
2022-08-04T16:37:40.690Z,36.20
2022-08-04T16:42:45.119Z,36.10
2022-08-04T16:47:47.835Z,36.00
2022-08-04T16:52:55.723Z,35.90
2022-08-04T16:58:01.387Z,35.80
2022-08-04T17:03:10.323Z,35.60
2022-08-04T17:08:30.558Z,35.20
2022-08-04T17:14:04.337Z,34.80
2022-08-04T17:19:25.051Z,34.40
2022-08-04T17:24:29.554Z,34.00
2022-08-04T17:29:43.109Z,33.80
2022-08-04T17:34:55.042Z,33.50
2022-08-04T17:40:22.448Z,33.30
2022-08-04T17:50:51.113Z,32.70
2022-08-04T17:55:56.943Z,32.30
2022-08-04T18:01:22.995Z,32.00
2022-08-04T18:06:25.540Z,31.50
2022-08-04T18:11:41.903Z,31.10
2022-08-04T18:16:45.692Z,30.70
2022-08-04T18:21:59.492Z,30.40
2022-08-04T18:27:06.573Z,30.10
2022-08-04T18:32:10.500Z,29.90
2022-08-04T18:38:03.313Z,29.70
2022-08-04T18:42:38.602Z,29.40
2022-08-04T18:47:54.368Z,29.20
2022-08-04T18:53:01.694Z,29.10
2022-08-04T18:58:11.654Z,28.80
2022-08-04T19:03:22.018Z,28.50
2022-08-04T19:08:33.194Z,28.30
2022-08-04T19:13:38.134Z,28.10
2022-08-04T19:18:41.266Z,27.90
2022-08-04T19:24:11.074Z,27.70
2022-08-04T19:29:08.451Z,27.50
2022-08-04T19:34:11.583Z,27.40
2022-08-04T19:39:14.575Z,27.30
2022-08-04T19:44:19.084Z,27.20
2022-08-04T19:50:04.462Z,27.10
2022-08-04T19:54:49.381Z,26.90
2022-08-04T19:59:54.875Z,26.80
2022-08-04T20:04:58.211Z,26.60
2022-08-04T20:10:04.425Z,26.50
2022-08-04T20:15:08.458Z,26.30
2022-08-04T20:20:15.387Z,26.20
2022-08-04T20:25:37.602Z,26.00
2022-08-04T20:30:42.497Z,25.90
2022-08-04T20:36:00.731Z,25.80
2022-08-04T20:41:08.403Z,25.60
2022-08-04T20:46:18.698Z,25.60
2022-08-04T20:51:33.343Z,25.50
2022-08-04T20:56:50.499Z,25.40
2022-08-04T21:01:54.245Z,25.20
2022-08-04T21:07:08.335Z,25.00
2022-08-04T21:12:27.604Z,25.00
2022-08-04T21:17:56.956Z,24.90
2022-08-04T21:22:59.943Z,24.80
2022-08-04T21:28:05.227Z,24.70
2022-08-04T21:33:08.268Z,24.60
2022-08-04T21:38:16.204Z,24.60
2022-08-04T21:43:19.829Z,24.50
2022-08-04T21:48:27.485Z,24.40
2022-08-04T21:53:30.604Z,24.30
2022-08-04T21:58:33.343Z,24.20
2022-08-04T22:03:52.968Z,24.20
2022-08-04T22:09:00.137Z,24.10
2022-08-04T22:14:11.065Z,24.00
2022-08-04T22:19:14.200Z,24.00
2022-08-04T22:24:26.112Z,24.00
2022-08-04T22:29:32.843Z,23.90
2022-08-04T22:34:39.415Z,23.90
2022-08-04T22:39:56.121Z,23.90
2022-08-04T22:44:59.400Z,23.80
2022-08-04T22:50:26.992Z,23.80
2022-08-04T22:55:27.036Z,23.70
2022-08-04T23:00:53.043Z,23.70
2022-08-04T23:06:11.089Z,23.60
2022-08-04T23:11:14.998Z,23.40
2022-08-04T23:16:19.149Z,23.30
2022-08-04T23:21:24.708Z,23.20
2022-08-04T23:26:28.454Z,23.20
2022-08-04T23:31:41.137Z,23.10
2022-08-04T23:36:44.569Z,23.10
2022-08-04T23:41:53.386Z,23.00
2022-08-04T23:47:03.813Z,22.90
2022-08-04T23:52:07.457Z,22.90
2022-08-04T23:57:19.864Z,22.80
